Time;durP1;ratioP1;P1;durP2;ratioP2;P2;SDS_P1;SDS_P2;PMS_P1;PMS_P2;Temp;Humidity;BMP_temperature;BMP_pressure;BME280_temperature;BME280_humidity;BME280_pressure;Samples;Min_cycle;Max_cycle;Signal;HPM_P1;HPM_P2
2022/10/01 00:01:21;;;;;;;34.30;26.12;;;;;;;10.50;100.00;99951.99;2891554;82;21043;-89
2022/10/01 00:05:24;;;;;;;36.28;27.98;;;;;;;10.51;100.00;99957.66;2866851;82;21063;-89
2022/10/01 00:09:26;;;;;;;37.20;27.87;;;;;;;10.58;100.00;99961.46;2862528;82;21011;-89
2022/10/01 00:13:29;;;;;;;38.70;27.80;;;;;;;10.59;100.00;99953.83;2835690;83;21147;-89
2022/10/01 00:17:30;;;;;;;41.28;30.30;;;;;;;10.60;100.00;99954.19;2891959;82;21129;-90
2022/10/01 00:21:31;;;;;;;38.70;29.67;;;;;;;10.53;100.00;99955.71;2894512;80;21031;-89
2022/10/01 00:25:33;;;;;;;36.93;29.12;;;;;;;10.52;100.00;99962.00;2843546;81;21043;-89
2022/10/01 00:29:35;;;;;;;40.20;28.73;;;;;;;10.46;100.00;99969.20;2889375;80;21558;-89
2022/10/01 00:33:37;;;;;;;38.42;29.55;;;;;;;10.46;100.00;99970.02;2891907;80;21007;-89
2022/10/01 00:37:39;;;;;;;36.35;27.35;;;;;;;10.45;100.00;99970.17;2891556;82;21027;-89
2022/10/01 00:41:41;;;;;;;39.20;28.12;;;;;;;10.41;100.00;99969.08;2889134;82;20996;-90
2022/10/01 00:45:42;;;;;;;35.70;26.93;;;;;;;10.38;100.00;99970.65;2849488;81;21542;-90
2022/10/01 00:49:46;;;;;;;37.58;28.42;;;;;;;10.32;100.00;99976.98;2892896;82;22668;-89
2022/10/01 00:53:47;;;;;;;45.63;30.35;;;;;;;10.32;100.00;99980.50;2824282;82;21050;-90
2022/10/01 00:57:49;;;;;;;37.70;29.90;;;;;;;10.32;100.00;99975.17;2890543;81;21138;-90
2022/10/01 01:01:51;;;;;;;47.48;31.52;;;;;;;10.29;100.00;99971.45;2865743;82;21043;-89
2022/10/01 01:05:53;;;;;;;42.20;29.92;;;;;;;10.21;100.00;99973.44;2865505;82;21035;-89
2022/10/01 01:09:55;;;;;;;36.90;26.93;;;;;;;10.13;100.00;99970.11;2871949;82;21536;-89
2022/10/01 01:14:17;;;;;;;39.92;29.30;;;;;;;10.05;100.00;99974.39;2879205;82;21027;-89
2022/10/01 01:18:33;;;;;;;38.85;28.98;;;;;;;9.92;100.00;99971.42;2857645;82;21090;-89
2022/10/01 01:22:40;;;;;;;37.98;29.45;;;;;;;9.90;100.00;99976.53;2878983;81;21074;-89
2022/10/01 01:26:53;;;;;;;36.77;30.68;;;;;;;9.81;100.00;99966.19;2884609;81;21071;-89
2022/10/01 01:31:00;;;;;;;45.92;32.28;;;;;;;9.78;100.00;99957.16;2883441;81;21583;-89
2022/10/01 01:35:05;;;;;;;42.10;28.45;;;;;;;9.74;100.00;99953.08;2859207;82;21047;-89
2022/10/01 01:39:11;;;;;;;42.20;30.77;;;;;;;9.68;100.00;99943.80;2881175;81;21055;-90
2022/10/01 01:43:18;;;;;;;35.88;28.00;;;;;;;9.56;100.00;99947.83;2878850;82;21539;-89
2022/10/01 01:47:23;;;;;;;37.58;28.92;;;;;;;9.42;100.00;99939.69;2864637;82;21059;-89
2022/10/01 01:51:58;;;;;;;38.75;30.05;;;;;;;9.36;100.00;99934.89;2889956;82;21570;-89
2022/10/01 01:55:59;;;;;;;36.85;26.52;;;;;;;9.34;100.00;99932.00;2838020;82;21079;-89
2022/10/01 02:00:01;;;;;;;34.63;27.50;;;;;;;9.32;100.00;99924.65;2855804;82;21055;-89
2022/10/01 02:04:11;;;;;;;32.40;24.37;;;;;;;9.35;100.00;99921.73;2876238;81;21031;-90
2022/10/01 02:08:41;;;;;;;35.85;25.30;;;;;;;9.29;100.00;99919.95;2885113;82;21031;-88
2022/10/01 02:12:48;;;;;;;36.68;24.95;;;;;;;9.28;100.00;99920.92;2857246;82;21527;-90
2022/10/01 02:17:09;;;;;;;28.42;24.65;;;;;;;9.19;100.00;99922.99;2854558;82;21856;-90
2022/10/01 02:21:37;;;;;;;32.67;23.30;;;;;;;9.21;100.00;99914.92;2878792;82;21039;-89
2022/10/01 02:25:48;;;;;;;36.60;23.90;;;;;;;9.20;100.00;99913.23;2877377;82;21043;-89
2022/10/01 02:29:50;;;;;;;29.10;22.10;;;;;;;9.17;100.00;99909.01;2862233;82;21070;-88
2022/10/01 02:33:54;;;;;;;28.20;21.68;;;;;;;9.16;100.00;99915.79;2890177;81;21027;-90
2022/10/01 02:37:58;;;;;;;29.95;22.02;;;;;;;9.17;100.00;99916.97;2873614;82;21023;-89
2022/10/01 02:42:01;;;;;;;28.83;19.75;;;;;;;9.18;100.00;99916.00;2864452;82;20996;-90
2022/10/01 02:46:17;;;;;;;26.10;20.25;;;;;;;9.20;100.00;99914.06;2894288;80;20968;-89
2022/10/01 02:50:22;;;;;;;25.05;18.62;;;;;;;9.15;100.00;99910.95;2865299;82;21086;-89
2022/10/01 02:54:29;;;;;;;29.87;20.40;;;;;;;9.18;100.00;99908.54;2887668;82;21038;-89
2022/10/01 02:58:31;;;;;;;24.02;17.60;;;;;;;9.17;100.00;99907.68;2882395;82;21206;-88
2022/10/01 03:02:32;;;;;;;24.60;17.62;;;;;;;9.14;100.00;99907.47;2821541;83;21018;-88
2022/10/01 03:06:34;;;;;;;65.83;56.33;;;;;;;9.17;100.00;99898.39;2822410;82;21048;-89
2022/10/01 03:10:35;;;;;;;24.05;18.92;;;;;;;9.25;100.00;99893.31;2878121;82;20988;-89
2022/10/01 03:14:41;;;;;;;21.50;16.45;;;;;;;9.43;100.00;99893.58;2852237;82;21547;-89
2022/10/01 03:18:40;;;;;;;21.37;17.40;;;;;;;9.45;100.00;99882.85;2784941;82;20999;-89
2022/10/01 03:22:46;;;;;;;17.35;14.47;;;;;;;9.24;100.00;99883.67;2888803;82;21031;-89
2022/10/01 03:26:48;;;;;;;17.25;12.78;;;;;;;9.08;100.00;99895.19;2865099;81;20987;-89
2022/10/01 03:30:50;;;;;;;19.37;13.90;;;;;;;8.98;100.00;99883.16;2884527;82;21047;-89
2022/10/01 03:34:51;;;;;;;16.30;14.00;;;;;;;8.93;100.00;99887.50;2881208;81;21035;-89
2022/10/01 03:38:52;;;;;;;14.68;11.10;;;;;;;8.90;100.00;99890.41;2883707;82;21063;-89
2022/10/01 03:42:53;;;;;;;16.75;11.97;;;;;;;8.82;100.00;99891.50;2892212;80;21538;-89
2022/10/01 03:46:54;;;;;;;20.17;12.37;;;;;;;8.79;100.00;99886.45;2898978;80;21535;-89
2022/10/01 03:50:58;;;;;;;23.12;11.25;;;;;;;8.89;100.00;99884.75;2867781;82;21040;-89
2022/10/01 03:54:59;;;;;;;13.88;11.90;;;;;;;8.96;100.00;99876.64;2819211;83;21014;-89
2022/10/01 03:59:01;;;;;;;17.27;10.80;;;;;;;8.94;100.00;99875.92;2868388;81;21073;-88
2022/10/01 04:03:02;;;;;;;13.55;11.20;;;;;;;8.89;100.00;99872.81;2847118;82;21038;-90
2022/10/01 04:07:03;;;;;;;14.28;11.57;;;;;;;8.85;100.00;99867.41;2809238;83;21086;-89
2022/10/01 04:11:06;;;;;;;12.30;10.20;;;;;;;8.82;100.00;99863.18;2835537;83;21085;-89
2022/10/01 04:15:08;;;;;;;14.55;11.33;;;;;;;8.81;100.00;99865.95;2866268;81;21067;-90
2022/10/01 04:19:09;;;;;;;12.82;9.70;;;;;;;8.86;100.00;99861.13;2826754;83;21534;-89
2022/10/01 04:23:10;;;;;;;17.20;11.28;;;;;;;8.87;100.00;99865.47;2881024;82;21035;-89
2022/10/01 04:27:11;;;;;;;15.13;11.53;;;;;;;8.93;100.00;99864.95;2815178;83;21023;-89
2022/10/01 04:31:25;;;;;;;15.50;11.65;;;;;;;9.08;100.00;99855.39;2832104;83;21034;-87
2022/10/01 04:35:28;;;;;;;15.78;12.28;;;;;;;9.25;100.00;99860.14;2816205;82;21067;-89
2022/10/01 04:39:29;;;;;;;17.55;11.90;;;;;;;9.43;100.00;99852.91;2893303;81;21055;-90
2022/10/01 04:43:31;;;;;;;21.33;12.68;;;;;;;9.54;100.00;99844.89;2883836;82;21086;-89
2022/10/01 04:47:32;;;;;;;20.05;12.78;;;;;;;9.57;100.00;99849.94;2868626;82;20975;-89
2022/10/01 04:51:33;;;;;;;12.80;10.15;;;;;;;9.55;100.00;99855.86;2882794;81;21027;-89
2022/10/01 04:55:34;;;;;;;18.00;12.05;;;;;;;9.60;100.00;99852.83;2784733;82;21109;-90
2022/10/01 04:59:35;;;;;;;14.10;11.12;;;;;;;9.71;100.00;99861.20;2882723;82;21623;-90
2022/10/01 05:03:36;;;;;;;12.90;11.33;;;;;;;9.65;100.00;99853.27;2852364;82;21048;-90
2022/10/01 05:07:39;;;;;;;14.28;11.25;;;;;;;9.69;100.00;99853.36;2829185;82;21027;-89
2022/10/01 05:11:40;;;;;;;19.65;12.65;;;;;;;9.61;100.00;99853.19;2873530;82;20992;-89
2022/10/01 05:15:41;;;;;;;16.82;13.38;;;;;;;9.64;100.00;99856.08;2845796;82;21027;-89
2022/10/01 05:19:43;;;;;;;23.55;14.60;;;;;;;9.64;100.00;99853.42;2860783;82;21046;-90
2022/10/01 05:23:44;;;;;;;17.87;12.90;;;;;;;9.77;100.00;99846.06;2854048;82;21054;-90
2022/10/01 05:27:45;;;;;;;19.42;13.50;;;;;;;10.05;100.00;99846.36;2874364;81;21106;-90
2022/10/01 05:31:47;;;;;;;21.07;14.23;;;;;;;10.33;100.00;99850.58;2864824;81;21054;-90
2022/10/01 05:35:48;;;;;;;23.10;14.18;;;;;;;10.49;100.00;99841.28;2815143;81;20992;-90
2022/10/01 05:39:49;;;;;;;24.40;16.25;;;;;;;10.62;100.00;99840.55;2892601;81;21587;-89
2022/10/01 05:43:50;;;;;;;23.45;15.48;;;;;;;10.69;99.54;99835.02;2882606;81;21026;-90
2022/10/01 05:48:00;;;;;;;20.57;15.08;;;;;;;10.76;99.45;99838.45;2838092;82;20993;-90
2022/10/01 05:52:01;;;;;;;46.85;35.05;;;;;;;10.65;100.00;99848.25;2855304;82;21612;-89
2022/10/01 05:56:05;;;;;;;39.78;30.20;;;;;;;10.75;100.00;99847.41;2868855;82;21070;-88
2022/10/01 06:00:07;;;;;;;125.47;81.85;;;;;;;10.81;99.94;99842.89;2847402;81;21510;-88
2022/10/01 06:04:09;;;;;;;27.25;21.48;;;;;;;10.95;99.42;99837.14;2739215;84;21069;-87
2022/10/01 06:08:11;;;;;;;20.23;17.02;;;;;;;10.98;98.81;99834.19;2835122;82;21059;-88
2022/10/01 06:12:12;;;;;;;18.55;15.75;;;;;;;10.69;100.00;99836.83;2822366;83;21091;-88
2022/10/01 06:16:14;;;;;;;17.67;14.93;;;;;;;10.64;100.00;99834.61;2824990;83;21050;-88
2022/10/01 06:20:18;;;;;;;23.45;17.40;;;;;;;10.71;100.00;99826.41;2880180;81;21050;-87
2022/10/01 06:24:19;;;;;;;20.85;16.67;;;;;;;10.97;100.00;99815.22;2821538;83;21522;-87
2022/10/01 06:28:20;;;;;;;18.30;15.20;;;;;;;11.26;100.00;99809.05;2739710;82;20978;-91
2022/10/01 06:32:21;;;;;;;15.78;12.85;;;;;;;11.53;100.00;99807.45;2784212;83;21542;-91
2022/10/01 06:36:22;;;;;;;15.05;13.15;;;;;;;11.98;100.00;99810.39;2837931;82;21023;-91
2022/10/01 06:40:24;;;;;;;20.40;14.33;;;;;;;12.36;100.00;99809.88;2832482;83;21045;-92
2022/10/01 06:44:25;;;;;;;16.02;13.32;;;;;;;12.66;100.00;99803.02;2823184;83;21067;-92
2022/10/01 06:48:27;;;;;;;13.85;11.85;;;;;;;12.91;99.22;99796.61;2829577;82;20994;-91
2022/10/01 06:56:48;;;;;;;17.77;12.15;;;;;;;13.36;98.75;99795.63;2832271;81;21078;-91
2022/10/01 07:00:49;;;;;;;18.35;14.60;;;;;;;13.81;98.08;99795.59;2823201;83;21043;-91
2022/10/01 07:04:50;;;;;;;15.45;11.12;;;;;;;14.19;93.98;99804.64;2862307;81;21125;-90
2022/10/01 07:08:52;;;;;;;15.45;11.83;;;;;;;14.16;96.12;99799.62;2883168;82;21579;-91
2022/10/01 07:12:53;;;;;;;12.23;9.48;;;;;;;14.38;97.58;99801.70;2867852;82;20990;-93
2022/10/01 07:16:54;;;;;;;15.05;10.50;;;;;;;14.78;97.21;99799.81;2876817;81;21079;-91
2022/10/01 07:20:58;;;;;;;14.68;11.00;;;;;;;15.23;95.02;99798.48;2859504;82;20984;-92
2022/10/01 07:24:59;;;;;;;14.45;10.58;;;;;;;15.67;93.07;99792.38;2868418;82;21034;-92
2022/10/01 07:29:00;;;;;;;12.20;10.43;;;;;;;16.06;91.29;99790.27;2843579;82;21032;-92
2022/10/01 07:33:01;;;;;;;11.45;8.95;;;;;;;16.39;90.27;99787.44;2880040;82;21033;-91
2022/10/01 07:37:03;;;;;;;13.32;9.95;;;;;;;16.58;84.57;99780.45;2881707;82;21007;-95
2022/10/01 07:41:04;;;;;;;12.25;9.58;;;;;;;16.61;85.33;99774.74;2867159;82;21062;-96
2022/10/01 07:45:07;;;;;;;7.72;6.90;;;;;;;16.67;83.81;99768.66;2882886;82;20979;-96
2022/10/01 07:49:09;;;;;;;11.03;8.38;;;;;;;16.73;82.66;99769.80;2873858;82;21051;-95
2022/10/01 07:53:11;;;;;;;12.13;9.73;;;;;;;16.77;83.05;99757.15;2873858;82;21340;-94
2022/10/01 07:57:13;;;;;;;10.60;8.98;;;;;;;17.07;83.83;99768.03;2886168;81;21098;-94
2022/10/01 08:01:14;;;;;;;10.23;7.87;;;;;;;17.22;82.91;99751.94;2899131;80;21035;-93
2022/10/01 08:05:18;;;;;;;9.58;7.25;;;;;;;17.51;84.06;99747.63;2890981;80;21059;-94
2022/10/01 08:09:20;;;;;;;10.25;8.35;;;;;;;17.78;82.88;99741.77;2854335;82;21059;-93
2022/10/01 08:13:24;;;;;;;10.20;8.15;;;;;;;17.96;78.29;99727.94;2834414;82;21487;-93
2022/10/01 08:17:25;;;;;;;8.48;6.78;;;;;;;18.17;79.34;99725.01;2879352;82;21080;-95
2022/10/01 08:21:29;;;;;;;7.90;6.60;;;;;;;18.29;78.99;99720.80;2844296;83;21619;-94
2022/10/01 08:25:31;;;;;;;10.35;6.72;;;;;;;18.49;78.24;99714.27;2861696;82;21027;-94
2022/10/01 08:29:33;;;;;;;9.30;6.35;;;;;;;18.62;78.90;99706.83;2837310;82;21047;-92
2022/10/01 08:33:35;;;;;;;9.73;7.47;;;;;;;18.74;78.26;99700.93;2851549;82;20996;-92
2022/10/01 08:37:36;;;;;;;9.38;6.28;;;;;;;18.73;76.51;99699.27;2814790;81;21074;-91
2022/10/01 08:42:06;;;;;;;7.45;5.72;;;;;;;18.63;78.39;99692.86;2898554;82;21081;-92
2022/10/01 08:46:15;;;;;;;10.20;7.15;;;;;;;18.66;78.89;99690.59;2892868;81;21035;-92
2022/10/01 08:50:33;;;;;;;8.35;6.00;;;;;;;18.79;78.25;99691.74;2887082;82;21043;-92
2022/10/01 08:54:49;;;;;;;9.78;8.45;;;;;;;18.79;75.34;99683.16;2891476;81;21501;-95
2022/10/01 08:59:01;;;;;;;7.45;6.55;;;;;;;18.78;77.10;99673.41;2908497;80;21121;-95
2022/10/01 09:03:10;;;;;;;6.33;5.70;;;;;;;18.69;77.63;99665.98;2877055;80;21034;-95
2022/10/01 09:07:29;;;;;;;5.33;4.70;;;;;;;18.64;78.11;99671.09;2837577;82;21045;-96
2022/10/01 09:12:05;;;;;;;5.08;4.58;;;;;;;18.64;78.21;99663.02;2885250;81;21058;-93
2022/10/01 09:16:33;;;;;;;6.08;4.87;;;;;;;18.59;78.18;99652.53;2893665;81;21038;-94
2022/10/01 09:20:43;;;;;;;6.30;5.08;;;;;;;18.58;79.13;99657.07;2904924;80;21054;-94
2022/10/01 09:24:52;;;;;;;5.65;4.60;;;;;;;18.59;75.74;99647.96;2850369;82;21064;-96
2022/10/01 09:28:58;;;;;;;5.28;4.78;;;;;;;18.80;76.71;99627.41;2835923;83;21090;-96
2022/10/01 09:33:15;;;;;;;6.28;5.05;;;;;;;19.13;74.26;99624.95;2872964;81;21023;-92
2022/10/01 09:37:42;;;;;;;;;;;;;;;19.31;74.92;99609.30;2877247;82;21063;-87
2022/10/01 09:41:45;;;;;;;4.22;3.90;;;;;;;19.48;74.57;99601.19;2873535;82;20147;-90
2022/10/01 09:45:46;;;;;;;5.72;5.17;;;;;;;19.55;75.08;99601.19;2874759;81;21011;-90
2022/10/01 09:49:48;;;;;;;5.05;3.87;;;;;;;19.74;76.46;99605.01;2858076;81;21315;-90
2022/10/01 09:54:16;;;;;;;5.28;4.30;;;;;;;19.80;74.91;99599.33;2871817;82;21040;-89
2022/10/01 09:58:22;;;;;;;5.25;3.52;;;;;;;19.91;71.59;99597.39;2882660;80;20999;-91
2022/10/01 10:02:31;;;;;;;;;;;;;;;19.93;72.67;99594.50;2892581;82;21031;-89
2022/10/01 10:06:33;;;;;;;3.87;3.47;;;;;;;19.87;71.83;99590.72;2888168;80;20115;-90
2022/10/01 10:10:38;;;;;;;4.45;3.30;;;;;;;20.02;74.15;99590.56;2842896;82;21011;-90
2022/10/01 10:14:40;;;;;;;5.17;4.15;;;;;;;19.94;69.93;99588.87;2846046;82;21062;-91
2022/10/01 10:18:41;;;;;;;5.08;3.12;;;;;;;19.84;68.57;99590.59;2829182;81;21117;-88
2022/10/01 10:22:43;;;;;;;3.42;3.10;;;;;;;19.99;72.11;99577.48;2824311;82;21078;-89
2022/10/01 10:26:55;;;;;;;3.52;3.05;;;;;;;20.08;69.93;99574.91;2843923;82;21003;-89
2022/10/01 10:30:57;;;;;;;2.47;2.27;;;;;;;20.08;68.64;99570.86;2840198;82;21031;-90
2022/10/01 10:35:04;;;;;;;4.40;2.10;;;;;;;20.04;66.38;99564.19;2834802;82;21535;-92
2022/10/01 10:39:28;;;;;;;2.45;2.25;;;;;;;20.00;67.38;99561.59;2836972;82;21094;-92
2022/10/01 10:43:35;;;;;;;3.10;2.80;;;;;;;19.89;67.96;99556.25;2829664;82;21054;-91
2022/10/01 10:47:47;;;;;;;3.40;2.75;;;;;;;19.73;68.94;99550.73;2808719;82;21143;-92
2022/10/01 11:00:20;;;;;;;6.50;4.55;;;;;;;19.14;70.37;99540.89;2853559;81;21083;-92
2022/10/01 11:04:42;;;;;;;3.50;2.65;;;;;;;19.10;72.59;99532.89;2862070;82;21027;-90
2022/10/01 11:08:55;;;;;;;2.62;2.40;;;;;;;18.94;70.36;99520.03;2853038;82;21083;-91
2022/10/01 11:13:18;;;;;;;4.97;2.77;;;;;;;18.92;73.51;99527.98;2990140;79;21045;-91
2022/10/01 11:17:31;;;;;;;2.77;2.52;;;;;;;18.80;72.39;99512.91;2983877;77;20994;-93
2022/10/01 11:21:38;;;;;;;3.98;2.30;;;;;;;18.64;72.41;99512.19;2999539;77;21010;-94
2022/10/01 11:26:01;;;;;;;3.52;3.15;;;;;;;18.42;72.84;99504.70;2965821;79;21037;-91
2022/10/01 11:30:14;;;;;;;5.30;3.35;;;;;;;18.39;74.10;99495.69;2992083;77;21030;-94
2022/10/01 11:35:03;;;;;;;2.98;2.77;;;;;;;18.39;74.41;99487.61;2995898;77;21018;-94
2022/10/01 11:39:18;;;;;;;4.50;3.45;;;;;;;18.40;74.95;99494.66;2991944;78;21473;-91
2022/10/01 11:43:32;;;;;;;4.70;3.22;;;;;;;18.36;75.64;99489.31;2965736;77;21002;-89
2022/10/01 11:47:57;;;;;;;2.40;2.02;;;;;;;18.43;73.82;99479.95;2968251;79;21015;-91
2022/10/01 11:52:13;;;;;;;3.87;2.58;;;;;;;18.46;73.87;99484.93;2976073;78;21013;-90
2022/10/01 12:00:43;;;;;;;3.25;2.87;;;;;;;18.31;73.24;99470.23;2992450;77;21002;-95
2022/10/01 12:05:08;;;;;;;6.87;2.92;;;;;;;18.25;73.84;99467.81;2935976;79;21112;-96
2022/10/01 12:09:48;;;;;;;3.80;3.50;;;;;;;18.15;73.54;99467.34;2998383;77;21010;-94
2022/10/01 12:14:04;;;;;;;8.18;5.87;;;;;;;17.89;73.11;99458.02;2973983;79;21739;-95
2022/10/01 12:18:19;;;;;;;7.62;5.75;;;;;;;17.79;74.40;99454.31;2963852;79;21709;-94
2022/10/01 12:22:28;;;;;;;5.75;4.17;;;;;;;17.65;74.43;99447.95;2943382;80;21018;-95
2022/10/01 12:26:44;;;;;;;4.15;2.92;;;;;;;17.61;74.20;99439.95;2970218;79;21015;-94
2022/10/01 12:31:00;;;;;;;6.42;4.78;;;;;;;17.61;75.64;99439.45;2955769;79;21102;-95
2022/10/01 12:35:37;;;;;;;11.43;5.72;;;;;;;17.61;74.62;99443.99;2876315;82;21122;-96
2022/10/01 12:39:44;;;;;;;10.05;5.12;;;;;;;17.73;74.96;99441.61;2882229;82;21018;-94
2022/10/01 12:44:27;;;;;;;10.10;5.60;;;;;;;17.82;75.53;99435.90;2881234;82;21151;-92
2022/10/01 12:48:59;;;;;;;12.18;6.58;;;;;;;17.94;76.52;99434.03;2874141;81;21031;-94
2022/10/01 12:53:23;;;;;;;4.70;3.62;;;;;;;17.94;75.84;99430.00;2855592;82;21027;-93
2022/10/01 12:57:54;;;;;;;8.80;4.78;;;;;;;17.94;75.04;99421.93;2863008;82;20996;-93
2022/10/01 13:02:15;;;;;;;6.15;5.47;;;;;;;17.85;74.42;99409.14;2857636;82;21007;-94
2022/10/01 13:06:25;;;;;;;7.37;5.25;;;;;;;17.85;75.23;99407.27;2850589;82;21121;-94
2022/10/01 13:10:49;;;;;;;6.67;4.60;;;;;;;17.83;74.42;99404.47;2904385;79;21050;-94
2022/10/01 13:14:53;;;;;;;6.78;4.97;;;;;;;17.82;75.04;99391.52;2981644;78;21018;-94
2022/10/01 13:19:09;;;;;;;6.55;4.97;;;;;;;17.78;74.87;99389.41;2970310;78;21923;-94
2022/10/01 13:23:30;;;;;;;6.75;6.08;;;;;;;17.65;74.54;99386.10;2970914;79;21030;-93
2022/10/01 13:27:43;;;;;;;7.30;4.40;;;;;;;17.68;75.41;99389.74;2979620;78;21089;-94
2022/10/01 13:32:03;;;;;;;5.67;4.12;;;;;;;17.65;74.59;99386.10;2982382;78;21057;-93
2022/10/01 13:36:07;;;;;;;5.67;3.62;;;;;;;17.59;74.72;99383.70;2941279;78;21064;-95
2022/10/01 13:40:29;;;;;;;3.85;3.25;;;;;;;17.47;73.79;99387.39;2914558;80;21031;-95
2022/10/01 13:44:34;;;;;;;5.97;2.92;;;;;;;17.35;74.32;99387.61;2924741;80;21078;-94
2022/10/01 13:48:40;;;;;;;4.53;3.12;;;;;;;17.34;74.80;99394.02;2904207;81;21016;-94
2022/10/01 13:52:42;;;;;;;3.70;3.17;;;;;;;17.33;75.60;99395.86;2874162;82;21008;-92
2022/10/01 13:56:44;;;;;;;5.42;3.52;;;;;;;17.32;77.42;99405.47;2927519;80;20992;-91
2022/10/01 14:00:56;;;;;;;4.45;3.30;;;;;;;17.09;80.75;99435.52;2887704;81;21032;-90
2022/10/01 14:05:18;;;;;;;3.90;2.80;;;;;;;16.38;82.05;99446.75;2874985;82;21016;-91
2022/10/01 14:09:31;;;;;;;3.67;2.12;;;;;;;15.64;88.17;99444.22;2881753;81;21031;-90
2022/10/01 14:18:00;;;;;;;1.92;1.72;;;;;;;14.92;93.91;99442.17;2878314;82;21086;-90
2022/10/01 14:22:10;;;;;;;6.33;2.80;;;;;;;14.76;95.45;99450.60;2885415;81;21562;-90
2022/10/01 14:26:34;;;;;;;1.52;1.42;;;;;;;14.68;95.99;99458.64;2936003;79;21023;-90
2022/10/01 14:31:20;;;;;;;1.92;1.70;;;;;;;14.60;96.74;99454.16;2908162;81;21035;-87
2022/10/01 14:35:36;;;;;;;2.52;2.05;;;;;;;14.56;97.51;99440.80;2899087;79;21545;-92
2022/10/01 14:39:37;;;;;;;3.08;2.42;;;;;;;14.55;97.53;99443.14;2899397;80;21004;-89
2022/10/01 14:43:38;;;;;;;3.47;1.37;;;;;;;14.57;98.15;99435.77;2871831;81;21079;-88
2022/10/01 14:47:39;;;;;;;3.42;2.10;;;;;;;14.61;96.29;99437.09;2896396;81;21566;-88
2022/10/01 14:51:46;;;;;;;1.52;1.05;;;;;;;14.67;97.20;99429.69;2901333;81;20999;-88
2022/10/01 14:55:50;;;;;;;1.25;0.90;;;;;;;14.65;94.36;99417.52;2904262;80;21078;-89
2022/10/01 14:59:53;;;;;;;0.98;0.80;;;;;;;14.61;92.14;99404.13;2909210;80;21038;-88
2022/10/01 15:03:54;;;;;;;1.90;0.90;;;;;;;14.45;92.20;99409.04;2911761;80;21078;-89
2022/10/01 15:07:55;;;;;;;0.80;0.78;;;;;;;14.30;92.49;99404.40;2912138;81;21058;-89
2022/10/01 15:11:59;;;;;;;1.62;0.95;;;;;;;14.21;92.70;99404.11;2900598;81;21051;-89
2022/10/01 15:16:01;;;;;;;1.15;0.93;;;;;;;14.17;94.24;99400.11;2902719;80;20968;-94
2022/10/01 15:20:03;;;;;;;1.17;1.12;;;;;;;14.13;94.37;99400.42;2904959;80;20990;-96
2022/10/01 15:24:09;;;;;;;0.88;0.88;;;;;;;14.20;95.20;99389.06;2906540;81;21006;-88
2022/10/01 15:28:32;;;;;;;1.12;1.00;;;;;;;14.19;95.37;99391.41;2863513;82;21085;-93
2022/10/01 15:32:33;;;;;;;1.47;1.37;;;;;;;14.12;96.06;99386.72;2925057;80;21018;-95
2022/10/01 15:36:35;;;;;;;1.70;1.32;;;;;;;14.02;95.43;99383.91;2900485;81;20962;-91
2022/10/01 15:40:37;;;;;;;1.20;0.78;;;;;;;13.96;95.59;99398.30;2918038;81;21034;-88
2022/10/01 15:44:45;;;;;;;1.42;1.32;;;;;;;13.88;97.18;99406.34;2908462;80;20972;-90
2022/10/01 15:48:47;;;;;;;1.80;1.32;;;;;;;13.84;97.21;99395.14;2903437;81;21019;-96
2022/10/01 15:53:04;;;;;;;2.92;2.52;;;;;;;13.83;98.31;99389.95;2890562;81;21367;-94
2022/10/01 15:57:07;;;;;;;2.60;1.42;;;;;;;13.80;99.04;99384.47;2902759;81;21542;-93
2022/10/01 16:01:16;;;;;;;2.02;1.05;;;;;;;13.81;98.43;99379.94;2919547;81;20984;-94
2022/10/01 16:05:27;;;;;;;2.17;1.25;;;;;;;13.73;97.30;99372.77;2923814;80;21526;-96
2022/10/01 16:09:29;;;;;;;2.77;0.95;;;;;;;13.75;96.98;99368.08;2927408;80;20992;-95
2022/10/01 16:13:37;;;;;;;1.22;1.05;;;;;;;13.73;96.96;99376.77;2913340;80;21307;-91
2022/10/01 16:17:39;;;;;;;2.98;1.77;;;;;;;13.71;96.80;99366.75;2924760;81;21000;-92
2022/10/01 16:21:40;;;;;;;2.35;0.70;;;;;;;13.74;97.25;99369.08;2927008;81;20991;-91
2022/10/01 16:25:44;;;;;;;2.92;1.12;;;;;;;13.81;97.18;99372.77;2912812;81;21043;-90
2022/10/01 16:29:59;;;;;;;2.77;1.32;;;;;;;13.86;97.73;99378.95;2917266;81;21043;-91
2022/10/01 16:34:00;;;;;;;2.10;1.40;;;;;;;13.88;98.35;99376.94;2919024;81;21054;-93
2022/10/01 16:38:07;;;;;;;1.35;1.00;;;;;;;13.92;97.74;99380.09;2921685;81;21044;-94
2022/10/01 16:42:06;;;;;;;2.77;1.60;;;;;;;13.93;97.75;99377.74;2906281;81;21024;-94
2022/10/01 16:46:07;;;;;;;3.98;2.67;;;;;;;13.94;97.61;99372.73;2912934;80;21008;-95
2022/10/01 16:50:14;;;;;;;6.20;4.80;;;;;;;13.96;97.16;99374.76;2904371;81;21550;-94
2022/10/01 16:54:22;;;;;;;8.95;5.92;;;;;;;13.91;97.17;99375.74;2905238;81;21543;-96
2022/10/01 16:58:23;;;;;;;9.50;8.35;;;;;;;13.96;97.47;99372.08;2906040;81;21047;-94
2022/10/01 17:02:25;;;;;;;19.60;10.80;;;;;;;14.00;97.34;99372.89;2906185;81;21019;-93
2022/10/01 17:06:26;;;;;;;8.48;6.75;;;;;;;14.00;96.87;99378.23;2900760;81;21039;-92
2022/10/01 17:10:31;;;;;;;4.70;2.45;;;;;;;14.02;97.02;99378.08;2912093;79;21034;-93
2022/10/01 17:14:32;;;;;;;3.25;1.52;;;;;;;14.07;96.73;99382.92;2929782;79;21062;-94
2022/10/01 17:18:33;;;;;;;2.12;1.60;;;;;;;14.01;95.73;99388.44;2931841;79;21609;-92
2022/10/01 17:22:34;;;;;;;2.35;1.57;;;;;;;13.93;95.52;99384.42;2929787;79;21030;-92
2022/10/01 17:26:41;;;;;;;1.92;1.77;;;;;;;13.89;95.52;99391.13;2934368;79;20998;-96
2022/10/01 17:30:45;;;;;;;1.35;0.95;;;;;;;13.89;96.47;99396.47;2937791;79;21011;-93
2022/10/01 17:34:46;;;;;;;2.75;1.82;;;;;;;13.90;95.97;99402.15;2932778;79;21044;-92
2022/10/01 17:38:47;;;;;;;4.40;2.15;;;;;;;13.94;96.50;99403.47;2945946;79;21055;-95
2022/10/01 17:42:51;;;;;;;2.27;1.67;;;;;;;13.95;95.51;99407.81;2879709;79;21023;-96
2022/10/01 17:46:54;;;;;;;3.87;1.70;;;;;;;13.97;95.69;99408.50;2787135;83;21024;-96
2022/10/01 17:51:04;;;;;;;2.70;1.55;;;;;;;13.83;94.08;99408.18;2768932;83;21033;-95
2022/10/01 17:55:07;;;;;;;4.55;2.10;;;;;;;13.82;94.46;99407.84;2800493;83;21009;-93
2022/10/01 17:59:09;;;;;;;3.27;2.08;;;;;;;13.75;94.66;99405.49;2781757;83;40561;-96
2022/10/01 18:03:10;;;;;;;3.60;2.50;;;;;;;13.76;95.50;99404.52;2766165;83;22208;-91
2022/10/01 18:07:12;;;;;;;1.45;1.25;;;;;;;13.70;96.87;99407.84;2730156;84;21016;-91
2022/10/01 18:11:14;;;;;;;3.33;1.52;;;;;;;13.70;97.46;99410.52;2820066;83;21084;-95
2022/10/01 18:15:17;;;;;;;1.75;1.62;;;;;;;13.70;98.17;99410.52;2815911;83;21015;-95
2022/10/01 18:19:18;;;;;;;2.20;1.72;;;;;;;13.73;97.10;99414.19;2783950;83;21099;-95
2022/10/01 18:23:20;;;;;;;2.50;1.70;;;;;;;13.79;97.12;99414.02;2782653;83;21027;-89
2022/10/01 18:27:21;;;;;;;2.30;2.10;;;;;;;13.78;95.85;99417.21;2784333;83;21008;-92
2022/10/01 18:31:25;;;;;;;4.00;2.50;;;;;;;13.77;96.89;99419.55;2795876;83;21035;-91
2022/10/01 18:35:33;;;;;;;2.87;1.52;;;;;;;13.76;97.80;99416.55;2758707;84;21062;-91
2022/10/01 18:39:42;;;;;;;2.85;1.37;;;;;;;13.72;97.82;99420.53;2791691;83;21327;-91
2022/10/01 18:43:45;;;;;;;4.92;2.05;;;;;;;13.70;98.38;99419.88;2798037;83;21055;-91
2022/10/01 18:48:22;;;;;;;3.67;1.90;;;;;;;13.62;99.46;99422.55;2759643;83;21051;-91
2022/10/01 18:52:46;;;;;;;2.45;1.37;;;;;;;13.62;99.62;99426.05;2675848;86;21063;-92
2022/10/01 18:57:04;;;;;;;4.75;2.37;;;;;;;13.61;100.00;99423.56;2577942;90;21126;-92
2022/10/01 19:01:35;;;;;;;3.87;2.22;;;;;;;13.66;100.00;99429.23;2511063;93;21154;-91
2022/10/01 19:06:06;;;;;;;4.53;1.90;;;;;;;13.71;100.00;99434.91;2503514;93;21066;-90
2022/10/01 19:10:19;;;;;;;5.05;2.12;;;;;;;13.75;100.00;99425.54;2491182;94;21167;-91
2022/10/01 19:14:59;;;;;;;2.50;1.65;;;;;;;13.85;100.00;99434.23;2508712;93;21191;-91
2022/10/01 19:19:26;;;;;;;2.92;1.25;;;;;;;13.90;100.00;99435.56;2485345;93;21696;-91
2022/10/01 19:23:50;;;;;;;1.77;1.50;;;;;;;13.93;100.00;99437.89;2501298;93;21139;-92
2022/10/01 19:28:28;;;;;;;1.40;0.98;;;;;;;13.99;100.00;99432.71;2505994;93;21149;-93
2022/10/01 19:32:43;;;;;;;1.87;1.77;;;;;;;14.01;99.65;99432.56;2606613;87;21699;-94
2022/10/01 19:37:17;;;;;;;3.55;1.47;;;;;;;13.99;99.36;99434.05;2711741;83;21119;-96